4XCWW LLIB-LLBG
Flight info
| Callsign | 4XCWW |
|---|---|
| Flight time | 0h 32m |
| Altitude | 7000 |
| Route | BAZRI1A BAZRI J14 NAT |
| Aircraft | SR22/L-V/N |
Departure
| Time | 2026-05-01 13:07 |
|---|---|
| Airport | Rosh Pina Airport (LLIB) |
Arrival
| Time | 2026-05-01 13:40 |
|---|---|
| Airport | Ben Gurion International Airport (LLBG) |
| Time | Latitude | Longitude | Altitude | Speed | Heading |
|---|---|---|---|---|---|
| 2026-05-01 12:50 | 32.97738 | 35.57348 | 911 ft | 0 kts | 239° |
| 2026-05-01 13:07 | 32.97697 | 35.58319 | 3484 ft | 106 kts | 204° |
| 2026-05-01 13:07 | 32.96981 | 35.58082 | 3768 ft | 108 kts | 201° |
| 2026-05-01 13:07 | 32.96224 | 35.57863 | 4017 ft | 114 kts | 200° |
| 2026-05-01 13:08 | 32.95445 | 35.57639 | 4304 ft | 116 kts | 199° |
| 2026-05-01 13:08 | 32.94656 | 35.57417 | 4592 ft | 117 kts | 199° |
| 2026-05-01 13:08 | 32.93867 | 35.57197 | 4878 ft | 117 kts | 199° |
| 2026-05-01 13:08 | 32.93070 | 35.56973 | 5167 ft | 117 kts | 199° |
| 2026-05-01 13:09 | 32.92283 | 35.56755 | 5451 ft | 116 kts | 199° |
| 2026-05-01 13:09 | 32.91499 | 35.56536 | 5733 ft | 116 kts | 198° |
| 2026-05-01 13:09 | 32.90714 | 35.56318 | 6013 ft | 114 kts | 199° |
| 2026-05-01 13:09 | 32.89948 | 35.56103 | 6289 ft | 113 kts | 199° |
| 2026-05-01 13:10 | 32.89180 | 35.55889 | 6573 ft | 111 kts | 199° |
| 2026-05-01 13:10 | 32.88440 | 35.55683 | 6845 ft | 109 kts | 199° |
| 2026-05-01 13:10 | 32.87661 | 35.55463 | 6960 ft | 123 kts | 199° |
| 2026-05-01 13:10 | 32.86766 | 35.55206 | 6974 ft | 141 kts | 198° |
| 2026-05-01 13:11 | 32.85749 | 35.54917 | 6968 ft | 155 kts | 198° |
| 2026-05-01 13:11 | 32.84663 | 35.54613 | 6952 ft | 164 kts | 197° |
| 2026-05-01 13:11 | 32.83551 | 35.54278 | 6940 ft | 167 kts | 206° |
| 2026-05-01 13:11 | 32.82435 | 35.53867 | 6933 ft | 173 kts | 189° |
| 2026-05-01 13:12 | 32.81229 | 35.53742 | 6921 ft | 174 kts | 191° |
| 2026-05-01 13:12 | 32.80152 | 35.53180 | 6931 ft | 168 kts | 221° |
| 2026-05-01 13:12 | 32.79289 | 35.52237 | 6926 ft | 169 kts | 228° |
| 2026-05-01 13:12 | 32.78442 | 35.51227 | 6926 ft | 171 kts | 229° |
| 2026-05-01 13:13 | 32.77545 | 35.50291 | 6917 ft | 171 kts | 227° |
| 2026-05-01 13:13 | 32.76694 | 35.49282 | 6916 ft | 172 kts | 229° |
| 2026-05-01 13:13 | 32.75859 | 35.48270 | 6915 ft | 172 kts | 229° |
| 2026-05-01 13:13 | 32.75024 | 35.47251 | 6922 ft | 172 kts | 229° |
| 2026-05-01 13:14 | 32.74179 | 35.46217 | 6917 ft | 173 kts | 229° |
| 2026-05-01 13:14 | 32.73343 | 35.45195 | 6923 ft | 173 kts | 229° |
| 2026-05-01 13:14 | 32.72511 | 35.44176 | 6918 ft | 173 kts | 229° |
| 2026-05-01 13:14 | 32.71664 | 35.43140 | 6920 ft | 172 kts | 229° |
| 2026-05-01 13:15 | 32.70831 | 35.42122 | 6919 ft | 173 kts | 229° |
| 2026-05-01 13:15 | 32.69994 | 35.41098 | 6916 ft | 173 kts | 229° |
| 2026-05-01 13:15 | 32.69151 | 35.40070 | 6924 ft | 173 kts | 229° |
| 2026-05-01 13:15 | 32.68312 | 35.39046 | 6936 ft | 173 kts | 229° |
| 2026-05-01 13:16 | 32.67474 | 35.38022 | 6927 ft | 173 kts | 229° |
| 2026-05-01 13:16 | 32.66625 | 35.36987 | 6926 ft | 173 kts | 229° |
| 2026-05-01 13:16 | 32.65785 | 35.35960 | 6929 ft | 173 kts | 229° |
| 2026-05-01 13:17 | 32.63260 | 35.32879 | 6937 ft | 174 kts | 229° |
| 2026-05-01 13:17 | 32.62418 | 35.31853 | 6933 ft | 174 kts | 229° |
| 2026-05-01 13:18 | 32.60735 | 35.29801 | 6947 ft | 173 kts | 229° |
| 2026-05-01 13:18 | 32.59887 | 35.28770 | 6950 ft | 174 kts | 229° |
| 2026-05-01 13:18 | 32.59032 | 35.27728 | 6946 ft | 174 kts | 229° |
| 2026-05-01 13:18 | 32.58187 | 35.26700 | 6947 ft | 174 kts | 229° |
| 2026-05-01 13:19 | 32.57425 | 35.25606 | 6940 ft | 171 kts | 244° |
| 2026-05-01 13:19 | 32.56652 | 35.24529 | 6949 ft | 174 kts | 225° |
| 2026-05-01 13:19 | 32.54881 | 35.22572 | 6937 ft | 174 kts | 227° |
| 2026-05-01 13:20 | 32.54004 | 35.21562 | 6948 ft | 174 kts | 228° |
| 2026-05-01 13:20 | 32.53145 | 35.20557 | 6949 ft | 174 kts | 228° |
| 2026-05-01 13:20 | 32.52279 | 35.19532 | 6952 ft | 175 kts | 229° |
| 2026-05-01 13:21 | 32.50568 | 35.17490 | 6946 ft | 174 kts | 229° |
| 2026-05-01 13:21 | 32.49714 | 35.16465 | 6953 ft | 174 kts | 229° |
| 2026-05-01 13:21 | 32.48856 | 35.15432 | 6954 ft | 174 kts | 229° |
| 2026-05-01 13:21 | 32.48007 | 35.14413 | 6947 ft | 174 kts | 229° |
| 2026-05-01 13:22 | 32.47154 | 35.13388 | 6951 ft | 174 kts | 229° |
| 2026-05-01 13:22 | 32.46318 | 35.12372 | 6955 ft | 173 kts | 229° |
| 2026-05-01 13:22 | 32.45472 | 35.11340 | 6950 ft | 174 kts | 229° |
| 2026-05-01 13:22 | 32.44620 | 35.10312 | 6951 ft | 173 kts | 229° |
| 2026-05-01 13:23 | 32.43771 | 35.09296 | 6957 ft | 173 kts | 229° |
| 2026-05-01 13:23 | 32.42916 | 35.08277 | 6968 ft | 174 kts | 229° |
| 2026-05-01 13:23 | 32.42064 | 35.07264 | 6954 ft | 175 kts | 229° |
| 2026-05-01 13:23 | 32.41195 | 35.06233 | 6943 ft | 174 kts | 229° |
| 2026-05-01 13:24 | 32.40212 | 35.05407 | 6939 ft | 178 kts | 206° |
| 2026-05-01 13:24 | 32.39295 | 35.04513 | 6955 ft | 170 kts | 239° |
| 2026-05-01 13:24 | 32.38596 | 35.03385 | 6961 ft | 172 kts | 234° |
| 2026-05-01 13:25 | 32.36979 | 35.01263 | 6944 ft | 173 kts | 229° |
| 2026-05-01 13:25 | 32.36134 | 35.00243 | 6952 ft | 173 kts | 229° |
| 2026-05-01 13:25 | 32.35276 | 34.99220 | 6949 ft | 173 kts | 229° |
| 2026-05-01 13:25 | 32.34434 | 34.98220 | 6953 ft | 173 kts | 229° |
| 2026-05-01 13:26 | 32.33569 | 34.97197 | 6961 ft | 173 kts | 229° |
| 2026-05-01 13:26 | 32.32715 | 34.96184 | 6963 ft | 174 kts | 229° |
| 2026-05-01 13:26 | 32.31857 | 34.95170 | 6946 ft | 174 kts | 229° |
| 2026-05-01 13:26 | 32.30994 | 34.94150 | 6951 ft | 174 kts | 229° |
| 2026-05-01 13:27 | 32.30129 | 34.93150 | 6953 ft | 175 kts | 223° |
| 2026-05-01 13:27 | 32.28935 | 34.92772 | 6941 ft | 186 kts | 178° |
| 2026-05-01 13:27 | 32.26757 | 34.94461 | 7044 ft | 187 kts | 143° |
| 2026-05-01 13:28 | 32.24532 | 34.96520 | 6405 ft | 216 kts | 146° |
| 2026-05-01 13:28 | 32.23289 | 34.97582 | 6052 ft | 222 kts | 147° |
| 2026-05-01 13:29 | 32.20901 | 34.99971 | 5317 ft | 226 kts | 140° |
| 2026-05-01 13:29 | 32.18554 | 35.02383 | 4645 ft | 219 kts | 140° |
| 2026-05-01 13:30 | 32.13420 | 35.05304 | 3969 ft | 198 kts | 164° |
| 2026-05-01 13:31 | 32.10870 | 35.06268 | 3965 ft | 186 kts | 164° |
| 2026-05-01 13:31 | 32.07236 | 35.07595 | 3969 ft | 178 kts | 176° |
| 2026-05-01 13:32 | 32.04786 | 35.07528 | 3972 ft | 175 kts | 185° |
| 2026-05-01 13:33 | 32.01091 | 35.07341 | 3974 ft | 176 kts | 185° |
| 2026-05-01 13:33 | 31.98567 | 35.07191 | 3788 ft | 184 kts | 185° |
| 2026-05-01 13:34 | 31.96001 | 35.07024 | 3666 ft | 179 kts | 185° |
| 2026-05-01 13:34 | 31.93567 | 35.06707 | 3462 ft | 173 kts | 210° |
| 2026-05-01 13:35 | 31.92785 | 35.04316 | 3250 ft | 164 kts | 272° |
| 2026-05-01 13:35 | 31.93054 | 35.03038 | 3065 ft | 146 kts | 294° |
| 2026-05-01 13:35 | 31.93793 | 35.01284 | 2687 ft | 118 kts | 300° |
| 2026-05-01 13:36 | 31.94220 | 35.00419 | 2492 ft | 123 kts | 301° |
| 2026-05-01 13:36 | 31.94661 | 34.99557 | 2290 ft | 124 kts | 302° |
| 2026-05-01 13:36 | 31.95558 | 34.97837 | 1911 ft | 123 kts | 302° |
| 2026-05-01 13:37 | 31.96010 | 34.96976 | 1727 ft | 123 kts | 302° |
| 2026-05-01 13:37 | 31.96465 | 34.96111 | 1544 ft | 122 kts | 302° |
| 2026-05-01 13:37 | 31.96909 | 34.95267 | 1369 ft | 122 kts | 302° |
| 2026-05-01 13:37 | 31.97353 | 34.94423 | 1199 ft | 121 kts | 301° |
| 2026-05-01 13:38 | 31.98243 | 34.92766 | 843 ft | 105 kts | 303° |
| 2026-05-01 13:38 | 31.98613 | 34.92069 | 622 ft | 104 kts | 300° |
| 2026-05-01 13:38 | 31.98994 | 34.91323 | 448 ft | 108 kts | 300° |
| 2026-05-01 13:39 | 31.99381 | 34.90602 | 317 ft | 102 kts | 300° |
| 2026-05-01 13:39 | 31.99752 | 34.89887 | 201 ft | 103 kts | 299° |
| 2026-05-01 13:39 | 32.00121 | 34.89173 | 151 ft | 94 kts | 300° |
| 2026-05-01 13:39 | 32.00454 | 34.88540 | 139 ft | 82 kts | 300° |
| 2026-05-01 13:40 | 32.00680 | 34.88099 | 135 ft | 45 kts | 292° |